sensor_id;sensor_type;location;lat;lon;timestamp;pressure;altitude;pressure_sealevel;temperature;humidity
40460;BME280;26164;51.138;16.952;2022-12-11T00:00:44;77307.28;;;-146.39;100.00
40460;BME280;26164;51.138;16.952;2022-12-11T00:03:30;77311.38;;;-146.39;100.00
40460;BME280;26164;51.138;16.952;2022-12-11T00:05:57;77307.28;;;-146.39;100.00
40460;BME280;26164;51.138;16.952;2022-12-11T00:08:22;77315.47;;;-146.39;100.00
40460;BME280;26164;51.138;16.952;2022-12-11T00:10:50;77303.22;;;-146.39;100.00
40460;BME280;26164;51.138;16.952;2022-12-11T00:13:16;77307.28;;;-146.39;100.00
40460;BME280;26164;51.138;16.952;2022-12-11T00:15:42;77307.28;;;-146.39;100.00
40460;BME280;26164;51.138;16.952;2022-12-11T00:18:11;77311.38;;;-146.39;100.00
40460;BME280;26164;51.138;16.952;2022-12-11T00:20:37;77315.47;;;-146.39;100.00
40460;BME280;26164;51.138;16.952;2022-12-11T00:23:03;77307.28;;;-146.39;100.00
40460;BME280;26164;51.138;16.952;2022-12-11T00:25:30;77299.13;;;-146.39;100.00
40460;BME280;26164;51.138;16.952;2022-12-11T00:27:55;77313.41;;;-146.39;100.00
40460;BME280;26164;51.138;16.952;2022-12-11T00:30:21;77303.22;;;-146.39;100.00
40460;BME280;26164;51.138;16.952;2022-12-11T00:32:50;77307.28;;;-146.39;100.00
40460;BME280;26164;51.138;16.952;2022-12-11T00:35:16;77311.38;;;-146.39;100.00
40460;BME280;26164;51.138;16.952;2022-12-11T00:37:42;77307.28;;;-146.39;100.00
40460;BME280;26164;51.138;16.952;2022-12-11T00:40:09;77301.16;;;-146.39;100.00
40460;BME280;26164;51.138;16.952;2022-12-11T00:42:35;77315.47;;;-146.39;100.00
40460;BME280;26164;51.138;16.952;2022-12-11T00:45:01;77319.53;;;-146.39;100.00
40460;BME280;26164;51.138;16.952;2022-12-11T00:47:27;77317.50;;;-146.39;100.00
40460;BME280;26164;51.138;16.952;2022-12-11T00:49:53;77315.47;;;-146.39;100.00
40460;BME280;26164;51.138;16.952;2022-12-11T00:52:19;77315.47;;;-146.39;100.00
40460;BME280;26164;51.138;16.952;2022-12-11T00:54:45;77305.25;;;-146.39;100.00
40460;BME280;26164;51.138;16.952;2022-12-11T00:57:11;77307.28;;;-146.39;100.00
40460;BME280;26164;51.138;16.952;2022-12-11T00:59:37;77307.28;;;-146.39;100.00
40460;BME280;26164;51.138;16.952;2022-12-11T01:02:03;77303.22;;;-146.39;100.00
40460;BME280;26164;51.138;16.952;2022-12-11T01:04:30;77299.13;;;-146.39;100.00
40460;BME280;26164;51.138;16.952;2022-12-11T01:06:56;77299.13;;;-146.39;100.00
40460;BME280;26164;51.138;16.952;2022-12-11T01:09:22;77305.25;;;-146.39;100.00
40460;BME280;26164;51.138;16.952;2022-12-11T01:12:06;77319.53;;;-146.39;100.00
40460;BME280;26164;51.138;16.952;2022-12-11T01:14:32;77323.63;;;-146.39;100.00
40460;BME280;26164;51.138;16.952;2022-12-11T01:16:58;77321.59;;;-146.39;100.00
40460;BME280;26164;51.138;16.952;2022-12-11T01:19:24;77319.53;;;-146.39;100.00
40460;BME280;26164;51.138;16.952;2022-12-11T01:21:50;77325.66;;;-146.39;100.00
40460;BME280;26164;51.138;16.952;2022-12-11T01:24:16;77331.78;;;-146.39;100.00
40460;BME280;26164;51.138;16.952;2022-12-11T01:26:41;77329.75;;;-146.39;100.00
40460;BME280;26164;51.138;16.952;2022-12-11T01:29:08;77331.78;;;-146.39;100.00
40460;BME280;26164;51.138;16.952;2022-12-11T01:31:33;77323.63;;;-146.39;100.00
40460;BME280;26164;51.138;16.952;2022-12-11T01:33:59;77325.66;;;-146.39;100.00
40460;BME280;26164;51.138;16.952;2022-12-11T01:36:25;77327.72;;;-146.39;100.00
40460;BME280;26164;51.138;16.952;2022-12-11T01:38:51;77331.78;;;-146.39;100.00
40460;BME280;26164;51.138;16.952;2022-12-11T01:41:19;77327.72;;;-146.39;100.00
40460;BME280;26164;51.138;16.952;2022-12-11T01:43:59;77327.72;;;-146.39;100.00
40460;BME280;26164;51.138;16.952;2022-12-11T01:46:27;77327.72;;;-146.39;100.00
40460;BME280;26164;51.138;16.952;2022-12-11T01:48:53;77331.78;;;-146.39;100.00
40460;BME280;26164;51.138;16.952;2022-12-11T01:51:21;77319.53;;;-146.39;100.00
40460;BME280;26164;51.138;16.952;2022-12-11T01:53:53;77323.63;;;-146.39;100.00
40460;BME280;26164;51.138;16.952;2022-12-11T01:56:20;77311.38;;;-146.39;100.00
40460;BME280;26164;51.138;16.952;2022-12-11T01:58:49;77311.38;;;-146.39;100.00
40460;BME280;26164;51.138;16.952;2022-12-11T02:01:39;77307.28;;;-146.39;100.00
40460;BME280;26164;51.138;16.952;2022-12-11T02:04:08;77315.47;;;-146.39;100.00
40460;BME280;26164;51.138;16.952;2022-12-11T02:06:40;77311.38;;;-146.39;100.00
40460;BME280;26164;51.138;16.952;2022-12-11T02:09:09;77305.25;;;-146.39;100.00
40460;BME280;26164;51.138;16.952;2022-12-11T02:14:25;77293.00;;;-146.39;100.00
40460;BME280;26164;51.138;16.952;2022-12-11T02:17:32;77301.16;;;-146.39;100.00
40460;BME280;26164;51.138;16.952;2022-12-11T02:23:29;77299.13;;;-146.39;100.00
40460;BME280;26164;51.138;16.952;2022-12-11T02:28:44;77295.03;;;-146.39;100.00
40460;BME280;26164;51.138;16.952;2022-12-11T02:31:19;77286.88;;;-146.39;100.00
40460;BME280;26164;51.138;16.952;2022-12-11T02:33:57;77295.03;;;-146.39;100.00
40460;BME280;26164;51.138;16.952;2022-12-11T02:36:28;77290.97;;;-146.39;100.00
40460;BME280;26164;51.138;16.952;2022-12-11T02:38:58;77297.09;;;-146.39;100.00
40460;BME280;26164;51.138;16.952;2022-12-11T02:41:28;77301.16;;;-146.39;100.00
40460;BME280;26164;51.138;16.952;2022-12-11T02:43:55;77303.22;;;-146.39;100.00
40460;BME280;26164;51.138;16.952;2022-12-11T02:46:23;77307.28;;;-146.39;100.00
40460;BME280;26164;51.138;16.952;2022-12-11T02:48:50;77307.28;;;-146.39;100.00
40460;BME280;26164;51.138;16.952;2022-12-11T02:51:21;77323.63;;;-146.39;100.00
40460;BME280;26164;51.138;16.952;2022-12-11T02:53:50;77315.47;;;-146.39;100.00
40460;BME280;26164;51.138;16.952;2022-12-11T02:56:24;77313.41;;;-146.39;100.00
40460;BME280;26164;51.138;16.952;2022-12-11T02:59:00;77313.41;;;-146.39;100.00
40460;BME280;26164;51.138;16.952;2022-12-11T03:01:29;77319.53;;;-146.39;100.00
40460;BME280;26164;51.138;16.952;2022-12-11T03:03:56;77319.53;;;-146.39;100.00
40460;BME280;26164;51.138;16.952;2022-12-11T03:06:27;77331.78;;;-146.39;100.00
40460;BME280;26164;51.138;16.952;2022-12-11T03:08:56;77309.34;;;-146.39;100.00
40460;BME280;26164;51.138;16.952;2022-12-11T03:11:25;77311.38;;;-146.39;100.00
40460;BME280;26164;51.138;16.952;2022-12-11T03:13:52;77323.63;;;-146.39;100.00
40460;BME280;26164;51.138;16.952;2022-12-11T03:16:34;77331.78;;;-146.39;100.00
40460;BME280;26164;51.138;16.952;2022-12-11T03:19:29;77335.88;;;-146.39;100.00
40460;BME280;26164;51.138;16.952;2022-12-11T03:22:09;77329.75;;;-146.39;100.00
40460;BME280;26164;51.138;16.952;2022-12-11T03:24:44;77335.88;;;-146.39;100.00
40460;BME280;26164;51.138;16.952;2022-12-11T03:27:19;77319.53;;;-146.39;100.00
40460;BME280;26164;51.138;16.952;2022-12-11T03:29:56;77339.97;;;-146.39;100.00
40460;BME280;26164;51.138;16.952;2022-12-11T03:32:27;77352.22;;;-146.39;100.00
40460;BME280;26164;51.138;16.952;2022-12-11T03:35:18;77356.28;;;-146.39;100.00
40460;BME280;26164;51.138;16.952;2022-12-11T03:37:47;77360.38;;;-146.39;100.00
40460;BME280;26164;51.138;16.952;2022-12-11T03:40:16;77360.38;;;-146.39;100.00
40460;BME280;26164;51.138;16.952;2022-12-11T03:42:46;77354.25;;;-146.39;100.00
40460;BME280;26164;51.138;16.952;2022-12-11T03:45:15;77364.47;;;-146.39;100.00
40460;BME280;26164;51.138;16.952;2022-12-11T03:47:43;77360.38;;;-146.39;100.00
40460;BME280;26164;51.138;16.952;2022-12-11T03:50:11;77356.28;;;-146.39;100.00
40460;BME280;26164;51.138;16.952;2022-12-11T03:52:40;77360.38;;;-146.39;100.00
40460;BME280;26164;51.138;16.952;2022-12-11T03:55:08;77352.22;;;-146.39;100.00
40460;BME280;26164;51.138;16.952;2022-12-11T03:57:36;77366.50;;;-146.39;100.00
40460;BME280;26164;51.138;16.952;2022-12-11T04:00:10;77354.25;;;-146.39;100.00
40460;BME280;26164;51.138;16.952;2022-12-11T04:02:41;77344.03;;;-146.39;100.00
40460;BME280;26164;51.138;16.952;2022-12-11T04:05:07;77350.16;;;-146.39;100.00
40460;BME280;26164;51.138;16.952;2022-12-11T04:07:33;77344.03;;;-146.39;100.00
40460;BME280;26164;51.138;16.952;2022-12-11T04:09:59;77339.97;;;-146.39;100.00
40460;BME280;26164;51.138;16.952;2022-12-11T04:12:26;77335.88;;;-146.39;100.00
40460;BME280;26164;51.138;16.952;2022-12-11T04:14:51;77348.13;;;-146.39;100.00
40460;BME280;26164;51.138;16.952;2022-12-11T04:17:32;77339.97;;;-146.39;100.00
40460;BME280;26164;51.138;16.952;2022-12-11T04:20:16;77335.88;;;-146.39;100.00
40460;BME280;26164;51.138;16.952;2022-12-11T04:23:04;77331.78;;;-146.39;100.00
40460;BME280;26164;51.138;16.952;2022-12-11T04:25:49;77323.63;;;-146.39;100.00
40460;BME280;26164;51.138;16.952;2022-12-11T04:28:15;77327.72;;;-146.39;100.00
40460;BME280;26164;51.138;16.952;2022-12-11T04:30:47;77317.50;;;-146.39;100.00
40460;BME280;26164;51.138;16.952;2022-12-11T04:33:13;77307.28;;;-146.39;100.00
40460;BME280;26164;51.138;16.952;2022-12-11T04:35:39;77327.72;;;-146.39;100.00
40460;BME280;26164;51.138;16.952;2022-12-11T04:38:05;77344.03;;;-146.39;100.00
40460;BME280;26164;51.138;16.952;2022-12-11T04:40:31;77327.72;;;-146.39;100.00
40460;BME280;26164;51.138;16.952;2022-12-11T04:42:57;77323.63;;;-146.39;100.00
40460;BME280;26164;51.138;16.952;2022-12-11T04:45:23;77319.53;;;-146.39;100.00
40460;BME280;26164;51.138;16.952;2022-12-11T04:47:49;77319.53;;;-146.39;100.00
40460;BME280;26164;51.138;16.952;2022-12-11T04:50:16;77327.72;;;-146.39;100.00
40460;BME280;26164;51.138;16.952;2022-12-11T04:52:42;77319.53;;;-146.39;100.00
40460;BME280;26164;51.138;16.952;2022-12-11T04:55:09;77311.38;;;-146.39;100.00
40460;BME280;26164;51.138;16.952;2022-12-11T04:57:35;77319.53;;;-146.39;100.00
40460;BME280;26164;51.138;16.952;2022-12-11T05:00:06;77323.63;;;-146.39;100.00
40460;BME280;26164;51.138;16.952;2022-12-11T05:02:35;77323.63;;;-146.39;100.00
40460;BME280;26164;51.138;16.952;2022-12-11T05:05:02;77315.47;;;-146.39;100.00
40460;BME280;26164;51.138;16.952;2022-12-11T05:07:28;77319.53;;;-146.39;100.00
40460;BME280;26164;51.138;16.952;2022-12-11T05:09:54;77323.63;;;-146.39;100.00
40460;BME280;26164;51.138;16.952;2022-12-11T05:12:20;77313.41;;;-146.39;100.00
40460;BME280;26164;51.138;16.952;2022-12-11T05:14:46;77327.72;;;-146.39;100.00
40460;BME280;26164;51.138;16.952;2022-12-11T05:17:15;77331.78;;;-146.39;100.00
40460;BME280;26164;51.138;16.952;2022-12-11T05:19:42;77323.63;;;-146.39;100.00
40460;BME280;26164;51.138;16.952;2022-12-11T05:22:09;77319.53;;;-146.39;100.00
40460;BME280;26164;51.138;16.952;2022-12-11T05:24:35;77319.53;;;-146.39;100.00
40460;BME280;26164;51.138;16.952;2022-12-11T05:27:01;77311.38;;;-146.39;100.00
40460;BME280;26164;51.138;16.952;2022-12-11T05:29:26;77315.47;;;-146.39;100.00
40460;BME280;26164;51.138;16.952;2022-12-11T05:31:53;77311.38;;;-146.39;100.00
40460;BME280;26164;51.138;16.952;2022-12-11T05:34:18;77311.38;;;-146.39;100.00
40460;BME280;26164;51.138;16.952;2022-12-11T05:36:45;77303.22;;;-146.39;100.00
40460;BME280;26164;51.138;16.952;2022-12-11T05:39:11;77301.16;;;-146.39;100.00
40460;BME280;26164;51.138;16.952;2022-12-11T05:41:37;77311.38;;;-146.39;100.00
40460;BME280;26164;51.138;16.952;2022-12-11T05:44:03;77311.38;;;-146.39;100.00
40460;BME280;26164;51.138;16.952;2022-12-11T05:46:30;77315.47;;;-146.39;100.00
40460;BME280;26164;51.138;16.952;2022-12-11T05:48:59;77303.22;;;-146.39;100.00
40460;BME280;26164;51.138;16.952;2022-12-11T05:51:26;77303.22;;;-146.39;100.00
40460;BME280;26164;51.138;16.952;2022-12-11T05:53:53;77305.25;;;-146.39;100.00
40460;BME280;26164;51.138;16.952;2022-12-11T05:56:22;77311.38;;;-146.39;100.00
40460;BME280;26164;51.138;16.952;2022-12-11T05:58:50;77319.53;;;-146.39;100.00
40460;BME280;26164;51.138;16.952;2022-12-11T06:01:22;77307.28;;;-146.39;100.00
40460;BME280;26164;51.138;16.952;2022-12-11T06:03:48;77319.53;;;-146.39;100.00
40460;BME280;26164;51.138;16.952;2022-12-11T06:06:14;77319.53;;;-146.39;100.00
40460;BME280;26164;51.138;16.952;2022-12-11T06:08:40;77307.28;;;-146.39;100.00
40460;BME280;26164;51.138;16.952;2022-12-11T06:11:07;77315.47;;;-146.39;100.00
40460;BME280;26164;51.138;16.952;2022-12-11T06:13:34;77313.41;;;-146.39;100.00
40460;BME280;26164;51.138;16.952;2022-12-11T06:16:01;77315.47;;;-146.39;100.00
40460;BME280;26164;51.138;16.952;2022-12-11T06:18:27;77327.72;;;-146.39;100.00
40460;BME280;26164;51.138;16.952;2022-12-11T06:20:53;77323.63;;;-146.39;100.00
40460;BME280;26164;51.138;16.952;2022-12-11T06:23:19;77335.88;;;-146.39;100.00
40460;BME280;26164;51.138;16.952;2022-12-11T06:25:45;77327.72;;;-146.39;100.00
40460;BME280;26164;51.138;16.952;2022-12-11T06:28:11;77348.13;;;-146.39;100.00
40460;BME280;26164;51.138;16.952;2022-12-11T06:30:37;77337.91;;;-146.39;100.00
40460;BME280;26164;51.138;16.952;2022-12-11T06:33:03;77335.88;;;-146.39;100.00
40460;BME280;26164;51.138;16.952;2022-12-11T06:35:29;77344.03;;;-146.39;100.00
40460;BME280;26164;51.138;16.952;2022-12-11T06:37:55;77339.97;;;-146.39;100.00
40460;BME280;26164;51.138;16.952;2022-12-11T06:40:21;77352.22;;;-146.39;100.00
40460;BME280;26164;51.138;16.952;2022-12-11T06:42:46;77352.22;;;-146.39;100.00
40460;BME280;26164;51.138;16.952;2022-12-11T06:45:12;77360.38;;;-146.39;100.00
40460;BME280;26164;51.138;16.952;2022-12-11T06:47:38;77358.34;;;-146.39;100.00
40460;BME280;26164;51.138;16.952;2022-12-11T06:50:05;77356.28;;;-146.39;100.00
40460;BME280;26164;51.138;16.952;2022-12-11T06:52:30;77360.38;;;-146.39;100.00
40460;BME280;26164;51.138;16.952;2022-12-11T06:54:56;77364.47;;;-146.39;100.00
40460;BME280;26164;51.138;16.952;2022-12-11T06:57:22;77366.50;;;-146.39;100.00
40460;BME280;26164;51.138;16.952;2022-12-11T06:59:49;77364.47;;;-146.39;100.00
40460;BME280;26164;51.138;16.952;2022-12-11T07:02:16;77364.47;;;-146.39;100.00
40460;BME280;26164;51.138;16.952;2022-12-11T07:04:42;77376.72;;;-146.39;100.00
40460;BME280;26164;51.138;16.952;2022-12-11T07:07:08;77354.25;;;-146.39;100.00
40460;BME280;26164;51.138;16.952;2022-12-11T07:09:36;77360.38;;;-146.39;100.00
40460;BME280;26164;51.138;16.952;2022-12-11T07:12:03;77360.38;;;-146.39;100.00
40460;BME280;26164;51.138;16.952;2022-12-11T07:14:30;77360.38;;;-146.39;100.00
40460;BME280;26164;51.138;16.952;2022-12-11T07:16:56;77360.38;;;-146.39;100.00
40460;BME280;26164;51.138;16.952;2022-12-11T07:19:22;77356.28;;;-146.39;100.00
40460;BME280;26164;51.138;16.952;2022-12-11T07:21:48;77368.53;;;-146.39;100.00
40460;BME280;26164;51.138;16.952;2022-12-11T07:24:15;77360.38;;;-146.39;100.00
40460;BME280;26164;51.138;16.952;2022-12-11T07:26:41;77360.38;;;-146.39;100.00
40460;BME280;26164;51.138;16.952;2022-12-11T07:29:08;77348.13;;;-146.39;100.00
40460;BME280;26164;51.138;16.952;2022-12-11T07:31:34;77352.22;;;-146.39;100.00
40460;BME280;26164;51.138;16.952;2022-12-11T07:34:04;77348.13;;;-146.39;100.00
40460;BME280;26164;51.138;16.952;2022-12-11T07:36:31;77358.34;;;-146.39;100.00
40460;BME280;26164;51.138;16.952;2022-12-11T07:38:58;77364.47;;;-146.39;100.00
40460;BME280;26164;51.138;16.952;2022-12-11T07:41:30;77360.38;;;-146.39;100.00
40460;BME280;26164;51.138;16.952;2022-12-11T07:44:01;77364.47;;;-146.39;100.00
40460;BME280;26164;51.138;16.952;2022-12-11T07:46:32;77356.28;;;-146.39;100.00
40460;BME280;26164;51.138;16.952;2022-12-11T07:48:59;77342.00;;;-146.39;100.00
40460;BME280;26164;51.138;16.952;2022-12-11T07:51:29;77346.09;;;-146.39;100.00
40460;BME280;26164;51.138;16.952;2022-12-11T07:54:01;77350.16;;;-146.39;100.00
40460;BME280;26164;51.138;16.952;2022-12-11T07:56:28;77344.03;;;-146.39;100.00
40460;BME280;26164;51.138;16.952;2022-12-11T07:59:00;77356.28;;;-146.39;100.00
40460;BME280;26164;51.138;16.952;2022-12-11T08:01:28;77360.38;;;-146.39;100.00
40460;BME280;26164;51.138;16.952;2022-12-11T08:03:55;77354.25;;;-146.39;100.00
40460;BME280;26164;51.138;16.952;2022-12-11T08:06:30;77356.28;;;-146.39;100.00
40460;BME280;26164;51.138;16.952;2022-12-11T08:08:58;77356.28;;;-146.39;100.00
40460;BME280;26164;51.138;16.952;2022-12-11T08:11:24;77352.22;;;-146.39;100.00
40460;BME280;26164;51.138;16.952;2022-12-11T08:13:51;77352.22;;;-146.39;100.00
40460;BME280;26164;51.138;16.952;2022-12-11T08:16:18;77368.53;;;-146.39;100.00
40460;BME280;26164;51.138;16.952;2022-12-11T08:18:46;77360.38;;;-146.39;100.00
40460;BME280;26164;51.138;16.952;2022-12-11T08:21:22;77368.53;;;-146.39;100.00
40460;BME280;26164;51.138;16.952;2022-12-11T08:23:49;77368.53;;;-146.39;100.00
40460;BME280;26164;51.138;16.952;2022-12-11T08:26:22;77354.25;;;-146.39;100.00
40460;BME280;26164;51.138;16.952;2022-12-11T08:28:54;77350.16;;;-146.39;100.00
40460;BME280;26164;51.138;16.952;2022-12-11T08:31:20;77362.41;;;-146.39;100.00
40460;BME280;26164;51.138;16.952;2022-12-11T08:33:47;77364.47;;;-146.39;100.00
40460;BME280;26164;51.138;16.952;2022-12-11T08:36:18;77354.25;;;-146.39;100.00
40460;BME280;26164;51.138;16.952;2022-12-11T08:38:53;77374.69;;;-146.39;100.00
40460;BME280;26164;51.138;16.952;2022-12-11T08:41:28;77368.53;;;-146.39;100.00
40460;BME280;26164;51.138;16.952;2022-12-11T08:44:00;77364.47;;;-146.39;100.00
40460;BME280;26164;51.138;16.952;2022-12-11T08:46:28;77356.28;;;-146.39;100.00
40460;BME280;26164;51.138;16.952;2022-12-11T08:48:56;77350.16;;;-146.39;100.00
40460;BME280;26164;51.138;16.952;2022-12-11T08:51:25;77335.88;;;-146.39;100.00
40460;BME280;26164;51.138;16.952;2022-12-11T08:53:59;77335.88;;;-146.39;100.00
40460;BME280;26164;51.138;16.952;2022-12-11T08:56:30;77364.47;;;-146.39;100.00
40460;BME280;26164;51.138;16.952;2022-12-11T08:59:15;77370.59;;;-146.39;100.00
40460;BME280;26164;51.138;16.952;2022-12-11T09:02:03;77380.81;;;-146.39;100.00
40460;BME280;26164;51.138;16.952;2022-12-11T09:04:33;77374.69;;;-146.39;100.00
40460;BME280;26164;51.138;16.952;2022-12-11T09:07:06;77368.53;;;-146.39;100.00
40460;BME280;26164;51.138;16.952;2022-12-11T09:13:26;77352.22;;;-146.39;100.00
40460;BME280;26164;51.138;16.952;2022-12-11T09:15:59;77364.47;;;-146.39;100.00
40460;BME280;26164;51.138;16.952;2022-12-11T09:18:27;77362.41;;;-146.39;100.00
40460;BME280;26164;51.138;16.952;2022-12-11T09:21:06;77368.53;;;-146.39;100.00
40460;BME280;26164;51.138;16.952;2022-12-11T09:23:37;77342.00;;;-146.39;100.00
40460;BME280;26164;51.138;16.952;2022-12-11T09:26:05;77356.28;;;-146.39;100.00
40460;BME280;26164;51.138;16.952;2022-12-11T09:28:33;77356.28;;;-146.39;100.00
40460;BME280;26164;51.138;16.952;2022-12-11T09:31:06;77348.13;;;-146.39;100.00
40460;BME280;26164;51.138;16.952;2022-12-11T09:33:43;77327.72;;;-146.39;100.00
40460;BME280;26164;51.138;16.952;2022-12-11T09:36:27;77331.78;;;-146.39;100.00
40460;BME280;26164;51.138;16.952;2022-12-11T09:39:16;77327.72;;;-146.39;100.00
40460;BME280;26164;51.138;16.952;2022-12-11T09:44:59;77307.28;;;-146.39;100.00
40460;BME280;26164;51.138;16.952;2022-12-11T09:47:38;77311.38;;;-146.39;100.00
40460;BME280;26164;51.138;16.952;2022-12-11T09:50:16;77331.78;;;-146.39;100.00
40460;BME280;26164;51.138;16.952;2022-12-11T10:06:57;77311.38;;;-146.39;100.00
40460;BME280;26164;51.138;16.952;2022-12-11T10:09:42;77319.53;;;-146.39;100.00
40460;BME280;26164;51.138;16.952;2022-12-11T10:15:27;77317.50;;;-146.39;100.00
40460;BME280;26164;51.138;16.952;2022-12-11T10:17:58;77319.53;;;-146.39;100.00
40460;BME280;26164;51.138;16.952;2022-12-11T10:20:32;77307.28;;;-146.39;100.00
40460;BME280;26164;51.138;16.952;2022-12-11T10:23:17;77295.03;;;-146.39;100.00
40460;BME280;26164;51.138;16.952;2022-12-11T10:26:00;77297.09;;;-146.39;100.00
40460;BME280;26164;51.138;16.952;2022-12-11T10:28:27;77295.03;;;-146.39;100.00
40460;BME280;26164;51.138;16.952;2022-12-11T10:31:07;77286.88;;;-146.39;100.00
40460;BME280;26164;51.138;16.952;2022-12-11T10:34:03;77290.97;;;-146.39;100.00
40460;BME280;26164;51.138;16.952;2022-12-11T10:36:37;77288.91;;;-146.39;100.00
40460;BME280;26164;51.138;16.952;2022-12-11T10:48:47;77270.53;;;-146.39;100.00
40460;BME280;26164;51.138;16.952;2022-12-11T10:51:14;77272.56;;;-146.39;100.00
40460;BME280;26164;51.138;16.952;2022-12-11T10:53:41;77274.63;;;-146.39;100.00
40460;BME280;26164;51.138;16.952;2022-12-11T10:56:10;77297.09;;;-146.39;100.00
40460;BME280;26164;51.138;16.952;2022-12-11T10:58:39;77301.16;;;-146.39;100.00
40460;BME280;26164;51.138;16.952;2022-12-11T11:01:14;77303.22;;;-146.39;100.00
40460;BME280;26164;51.138;16.952;2022-12-11T11:03:52;77286.88;;;-146.39;100.00
40460;BME280;26164;51.138;16.952;2022-12-11T11:06:21;77270.53;;;-146.39;100.00
40460;BME280;26164;51.138;16.952;2022-12-11T11:08:49;77295.03;;;-146.39;100.00
40460;BME280;26164;51.138;16.952;2022-12-11T11:13:44;77290.97;;;-146.39;100.00
40460;BME280;26164;51.138;16.952;2022-12-11T11:16:12;77278.72;;;-146.39;100.00
40460;BME280;26164;51.138;16.952;2022-12-11T11:18:40;77278.72;;;-146.39;100.00
40460;BME280;26164;51.138;16.952;2022-12-11T11:21:16;77272.56;;;-146.39;100.00
40460;BME280;26164;51.138;16.952;2022-12-11T11:23:43;77282.78;;;-146.39;100.00
40460;BME280;26164;51.138;16.952;2022-12-11T11:26:10;77250.13;;;-146.39;100.00
40460;BME280;26164;51.138;16.952;2022-12-11T11:28:40;77262.38;;;-146.39;100.00
40460;BME280;26164;51.138;16.952;2022-12-11T11:31:12;77258.28;;;-146.39;100.00
40460;BME280;26164;51.138;16.952;2022-12-11T11:36:22;77272.56;;;-146.39;100.00
40460;BME280;26164;51.138;16.952;2022-12-11T11:39:03;77262.38;;;-146.39;100.00
40460;BME280;26164;51.138;16.952;2022-12-11T11:45:02;77278.72;;;-146.39;100.00
40460;BME280;26164;51.138;16.952;2022-12-11T11:47:26;77274.63;;;-146.39;100.00
40460;BME280;26164;51.138;16.952;2022-12-11T11:50:24;77295.03;;;-146.39;100.00
40460;BME280;26164;51.138;16.952;2022-12-11T11:53:33;77286.88;;;-146.39;100.00
40460;BME280;26164;51.138;16.952;2022-12-11T11:56:24;77301.16;;;-146.39;100.00
40460;BME280;26164;51.138;16.952;2022-12-11T11:59:00;77286.88;;;-146.39;100.00
40460;BME280;26164;51.138;16.952;2022-12-11T12:01:28;77290.97;;;-146.39;100.00
40460;BME280;26164;51.138;16.952;2022-12-11T12:03:55;77295.03;;;-146.39;100.00
40460;BME280;26164;51.138;16.952;2022-12-11T12:11:48;77274.63;;;-146.39;100.00
40460;BME280;26164;51.138;16.952;2022-12-11T12:14:37;77278.72;;;-146.39;100.00
40460;BME280;26164;51.138;16.952;2022-12-11T12:17:44;77286.88;;;-146.39;100.00
40460;BME280;26164;51.138;16.952;2022-12-11T12:20:39;77268.50;;;-146.39;100.00
40460;BME280;26164;51.138;16.952;2022-12-11T12:23:28;77258.28;;;-146.39;100.00
40460;BME280;26164;51.138;16.952;2022-12-11T12:26:08;77274.63;;;-146.39;100.00
40460;BME280;26164;51.138;16.952;2022-12-11T12:28:47;77280.75;;;-146.39;100.00
40460;BME280;26164;51.138;16.952;2022-12-11T12:45:43;77262.38;;;-146.39;100.00
40460;BME280;26164;51.138;16.952;2022-12-11T12:48:14;77260.31;;;-146.39;100.00
40460;BME280;26164;51.138;16.952;2022-12-11T12:50:46;77260.31;;;-146.39;100.00
40460;BME280;26164;51.138;16.952;2022-12-11T12:53:27;77280.75;;;-146.39;100.00
40460;BME280;26164;51.138;16.952;2022-12-11T12:55:55;77268.50;;;-146.39;100.00
40460;BME280;26164;51.138;16.952;2022-12-11T12:58:47;77270.53;;;-146.39;100.00
40460;BME280;26164;51.138;16.952;2022-12-11T13:01:17;77270.53;;;-146.39;100.00
40460;BME280;26164;51.138;16.952;2022-12-11T13:04:00;77282.78;;;-146.39;100.00
40460;BME280;26164;51.138;16.952;2022-12-11T13:06:38;77278.72;;;-146.39;100.00
40460;BME280;26164;51.138;16.952;2022-12-11T13:09:22;77272.56;;;-146.39;100.00
40460;BME280;26164;51.138;16.952;2022-12-11T13:11:50;77276.66;;;-146.39;100.00
40460;BME280;26164;51.138;16.952;2022-12-11T13:14:30;77280.75;;;-146.39;100.00
40460;BME280;26164;51.138;16.952;2022-12-11T13:19:48;77274.63;;;-146.39;100.00
40460;BME280;26164;51.138;16.952;2022-12-11T13:24:46;77295.03;;;-146.39;100.00
40460;BME280;26164;51.138;16.952;2022-12-11T13:27:24;77307.28;;;-146.39;100.00
40460;BME280;26164;51.138;16.952;2022-12-11T13:29:51;77323.63;;;-146.39;100.00
40460;BME280;26164;51.138;16.952;2022-12-11T13:32:29;77325.66;;;-146.39;100.00
40460;BME280;26164;51.138;16.952;2022-12-11T13:34:58;77309.34;;;-146.39;100.00
40460;BME280;26164;51.138;16.952;2022-12-11T13:39:58;77286.88;;;-146.39;100.00
40460;BME280;26164;51.138;16.952;2022-12-11T13:42:34;77301.16;;;-146.39;100.00
40460;BME280;26164;51.138;16.952;2022-12-11T13:45:02;77295.03;;;-146.39;100.00
40460;BME280;26164;51.138;16.952;2022-12-11T13:47:31;77278.72;;;-146.39;100.00
40460;BME280;26164;51.138;16.952;2022-12-11T13:50:16;77270.53;;;-146.39;100.00
40460;BME280;26164;51.138;16.952;2022-12-11T13:53:01;77295.03;;;-146.39;100.00
40460;BME280;26164;51.138;16.952;2022-12-11T13:55:32;77284.84;;;-146.39;100.00
40460;BME280;26164;51.138;16.952;2022-12-11T13:57:59;77270.53;;;-146.39;100.00